Lakeview AWS, OR

10:04 PM PDT on September 19, 2017 (GMT -0700)
Lake County

Weather History for KLKV - June, 2013

Change the Weather History Date:

Thursday, June 13, 2013

  Actual Average Record
Temperature  
Mean Temperature 50 °F -  
Max Temperature 64 °F 71 °F 91 °F (1933)
Min Temperature 37 °F 42 °F 28 °F (1952)
Degree Days  
Heating Degree Days 14    
Moisture  
Dew Point 30 °F    
Average Humidity 47    
Maximum Humidity 75    
Minimum Humidity 25    
Precipitation  
Precipitation 0.00 in - - ()
Sea Level Pressure  
Sea Level Pressure 30.16 in    
Wind  
Wind Speed 12 mph (NW)    
Max Wind Speed 21 mph    
Max Gust Speed 29 mph    
Visibility 10 miles    
Events      
Averages and records for this station are not official NWS values.
T = Trace of Precipitation, MM = Missing Value Source: NWS Daily Summary

Daily Weather History Graph

Daily Weather History Graph

Search for Another Location

Airport or City:

Trip Planner

Search our weather history database for the weather conditions in past years. The results will help you decide how hot, cold, wet, or windy it might be!

Date:

Astronomy

Jun. 13, 2013 Rise Set
Actual Time 5:24 AM PDT 8:38 PM PDT
Civil Twilight 4:50 AM PDT 9:13 PM PDT
Nautical Twilight 4:05 AM PDT 9:57 PM PDT
Astronomical Twilight 3:12 AM PDT 10:51 PM PDT
Moon 10:10 AM PDT (6/13) 11:43 PM PDT (6/13)
Length of Visible Light 16h 22m
Length of Day
15h 13m
Waxing Crescent, 22% of the Moon is Illuminated
Jun 13
Waxing Crescent
Jun 16
First Quarter
Jun 23
Full
Jun 29
Last Quarter
Jul 8
New

Hourly Weather History & Observations

Time (PDT) Temp. Windchill Dew Point Humidity Pressure Visibility Wind Dir Wind Speed Gust Speed Precip Events Conditions
12:15 AM 48.2 °F - 30.2 °F 50% 30.10 in 10.0 mi NNW 16.1 mph - N/A   Mostly Cloudy
12:35 AM 46.4 °F 40.4 °F 28.4 °F 50% 30.11 in 10.0 mi NNW 13.8 mph - N/A   Partly Cloudy
12:55 AM 46.4 °F 40.1 °F 28.4 °F 50% 30.10 in 10.0 mi North 15.0 mph 21.9 mph N/A   Clear
1:15 AM 44.6 °F 37.8 °F 30.2 °F 57% 30.10 in 10.0 mi North 15.0 mph 19.6 mph N/A   Clear
1:35 AM 44.6 °F 38.1 °F 30.2 °F 57% 30.11 in 10.0 mi North 13.8 mph 20.7 mph N/A   Clear
1:55 AM 44.6 °F 38.1 °F 30.2 °F 57% 30.11 in 10.0 mi North 13.8 mph - N/A   Mostly Cloudy
2:15 AM 44.6 °F 39.2 °F 30.2 °F 57% 30.11 in 10.0 mi NNW 10.4 mph - N/A   Overcast
2:35 AM 42.8 °F 35.8 °F 30.2 °F 61% 30.10 in 10.0 mi North 13.8 mph - N/A   Overcast
2:55 AM 42.8 °F 35.4 °F 30.2 °F 61% 30.10 in 10.0 mi NNW 15.0 mph - N/A   Mostly Cloudy
3:15 AM 42.8 °F 35.1 °F 30.2 °F 61% 30.12 in 10.0 mi NNW 16.1 mph 20.7 mph N/A   Mostly Cloudy
3:35 AM 42.8 °F 36.6 °F 30.2 °F 61% 30.11 in 10.0 mi North 11.5 mph - N/A   Overcast
3:55 AM 42.8 °F 36.2 °F 30.2 °F 61% 30.12 in 10.0 mi WNW 12.7 mph - N/A   Overcast
4:15 AM 42.8 °F 36.6 °F 32.0 °F 66% 30.10 in 10.0 mi North 11.5 mph - N/A   Overcast
4:35 AM 42.8 °F 36.2 °F 30.2 °F 61% 30.11 in 10.0 mi NNW 12.7 mph - N/A   Mostly Cloudy
4:55 AM 41.0 °F 34.3 °F 30.2 °F 65% 30.11 in 10.0 mi NNW 11.5 mph - N/A   Mostly Cloudy
5:15 AM 41.0 °F 34.7 °F 30.2 °F 65% 30.12 in 10.0 mi NNW 10.4 mph - N/A   Mostly Cloudy
5:35 AM 39.2 °F 32.0 °F 30.2 °F 70% 30.11 in 10.0 mi North 11.5 mph - N/A   Scattered Clouds
5:55 AM 39.2 °F 31.6 °F 30.2 °F 70% 30.12 in 10.0 mi NNW 12.7 mph - N/A   Clear
6:15 AM 41.0 °F 33.5 °F 30.2 °F 65% 30.12 in 10.0 mi NNW 13.8 mph - N/A   Scattered Clouds
6:35 AM 42.8 °F 36.6 °F 30.2 °F 61% 30.12 in 10.0 mi North 11.5 mph - N/A   Partly Cloudy
6:55 AM 44.6 °F 38.8 °F 30.2 °F 57% 30.13 in 10.0 mi North 11.5 mph - N/A   Clear
7:15 AM 44.6 °F 39.2 °F 32.0 °F 61% 30.14 in 10.0 mi NNW 10.4 mph - N/A   Clear
7:35 AM 46.4 °F 41.1 °F 33.8 °F 62% 30.14 in 10.0 mi NNW 11.5 mph - N/A   Partly Cloudy
7:55 AM 46.4 °F 41.9 °F 32.0 °F 57% 30.14 in 10.0 mi North 9.2 mph - N/A   Partly Cloudy
8:15 AM 48.2 °F - 32.0 °F 54% 30.15 in 10.0 mi NW 5.8 mph - N/A   Clear
8:35 AM 51.8 °F - 30.2 °F 44% 30.15 in 10.0 mi WNW 8.1 mph - N/A   Clear
8:55 AM 51.8 °F - 32.0 °F 47% 30.16 in 10.0 mi West 4.6 mph - N/A   Clear
9:15 AM 53.6 °F - 32.0 °F 44% 30.15 in 10.0 mi WNW 6.9 mph - N/A   Clear
9:35 AM 53.6 °F - 32.0 °F 44% 30.16 in 10.0 mi West 6.9 mph - N/A   Clear
9:55 AM 53.6 °F - 30.2 °F 41% 30.15 in 10.0 mi South 5.8 mph - N/A   Clear
10:15 AM 53.6 °F - 30.2 °F 41% 30.15 in 10.0 mi SE 5.8 mph - N/A   Clear
10:35 AM 55.4 °F - 30.2 °F 38% 30.15 in 10.0 mi SW 3.5 mph - N/A   Clear
10:55 AM 57.2 °F - 30.2 °F 36% 30.15 in 10.0 mi South 6.9 mph - N/A   Clear
11:15 AM 57.2 °F - 33.8 °F 41% 30.14 in 10.0 mi South 11.5 mph 16.1 mph N/A   Partly Cloudy
11:35 AM 55.4 °F - 28.4 °F 36% 30.15 in 10.0 mi SSE 5.8 mph - N/A   Mostly Cloudy
11:55 AM 57.2 °F - 30.2 °F 36% 30.14 in 10.0 mi South 11.5 mph 18.4 mph N/A   Mostly Cloudy
12:15 PM 57.2 °F - 28.4 °F 33% 30.15 in 10.0 mi WSW 9.2 mph - N/A   Overcast
12:35 PM 57.2 °F - 26.6 °F 31% 30.15 in 10.0 mi SW 9.2 mph 16.1 mph N/A   Mostly Cloudy
12:55 PM 60.8 °F - 26.6 °F 27% 30.15 in 10.0 mi West 12.7 mph 16.1 mph N/A   Mostly Cloudy
1:15 PM 62.6 °F - 26.6 °F 26% 30.15 in 10.0 mi West 16.1 mph 21.9 mph N/A   Partly Cloudy
1:35 PM 64.4 °F - 28.4 °F 26% 30.15 in 10.0 mi West 16.1 mph 23.0 mph N/A   Scattered Clouds
1:55 PM 62.6 °F - 26.6 °F 26% 30.15 in 10.0 mi West 12.7 mph 18.4 mph N/A   Mostly Cloudy
2:15 PM 60.8 °F - 26.6 °F 27% 30.15 in 10.0 mi WSW 9.2 mph 16.1 mph N/A   Overcast
2:35 PM 60.8 °F - 26.6 °F 27% 30.15 in 10.0 mi West 16.1 mph 23.0 mph N/A   Overcast
2:55 PM 60.8 °F - 26.6 °F 27% 30.16 in 10.0 mi West 17.3 mph 24.2 mph N/A   Overcast
3:15 PM 60.8 °F - 28.4 °F 29% 30.16 in 10.0 mi WNW 13.8 mph 23.0 mph N/A   Overcast
3:35 PM 62.6 °F - 28.4 °F 27% 30.17 in 10.0 mi WNW 18.4 mph 24.2 mph N/A   Overcast
3:55 PM 62.6 °F - 28.4 °F 27% 30.17 in 10.0 mi WNW 16.1 mph 25.3 mph N/A   Mostly Cloudy
4:15 PM 62.6 °F - 30.2 °F 30% 30.17 in 10.0 mi West 17.3 mph 26.5 mph N/A   Scattered Clouds
4:35 PM 60.8 °F - 30.2 °F 31% 30.17 in 10.0 mi North 13.8 mph - N/A   Clear
4:55 PM 57.2 °F - 33.8 °F 41% 30.17 in 10.0 mi North 6.9 mph - N/A   Mostly Cloudy
5:15 PM 60.8 °F - 30.2 °F 31% 30.17 in 10.0 mi West 20.7 mph 28.8 mph N/A   Mostly Cloudy
5:35 PM 60.8 °F - 28.4 °F 29% 30.17 in 10.0 mi West 16.1 mph 21.9 mph N/A   Partly Cloudy
5:55 PM 59.0 °F - 24.8 °F 27% 30.17 in 10.0 mi West 15.0 mph - N/A   Partly Cloudy
6:15 PM 60.8 °F - 24.8 °F 25% 30.18 in 10.0 mi WNW 17.3 mph 24.2 mph N/A   Clear
6:35 PM 59.0 °F - 24.8 °F 27% 30.19 in 10.0 mi West 11.5 mph 21.9 mph N/A   Clear
6:55 PM 59.0 °F - 23.0 °F 25% 30.19 in 10.0 mi West 15.0 mph 21.9 mph N/A   Clear
7:15 PM 57.2 °F - 21.2 °F 25% 30.20 in 10.0 mi West 17.3 mph 20.7 mph N/A   Clear
7:35 PM 57.2 °F - 24.8 °F 29% 30.21 in 10.0 mi WNW 13.8 mph 19.6 mph N/A   Clear
7:55 PM 55.4 °F - 26.6 °F 33% 30.22 in 10.0 mi WNW 9.2 mph - N/A   Clear
8:15 PM 53.6 °F - 26.6 °F 35% 30.23 in 10.0 mi NNW 9.2 mph - N/A   Clear
8:35 PM 50.0 °F - 32.0 °F 50% 30.23 in 10.0 mi WNW 6.9 mph - N/A   Clear
8:55 PM 48.2 °F - 33.8 °F 58% 30.23 in 10.0 mi NNW 6.9 mph - N/A   Clear
9:15 PM 44.6 °F 39.2 °F 32.0 °F 61% 30.23 in 10.0 mi North 10.4 mph - N/A   Clear
9:35 PM 44.6 °F 39.7 °F 32.0 °F 61% 30.24 in 10.0 mi North 9.2 mph - N/A   Clear
9:55 PM 42.8 °F 38.6 °F 32.0 °F 66% 30.25 in 10.0 mi North 6.9 mph - N/A   Clear
10:15 PM 39.2 °F 33.0 °F 30.2 °F 70% 30.25 in 10.0 mi North 9.2 mph - N/A   Clear
10:35 PM 39.2 °F 33.0 °F 30.2 °F 70% 30.25 in 10.0 mi NNW 9.2 mph - N/A   Clear
10:55 PM 39.2 °F 33.6 °F 32.0 °F 75% 30.25 in 10.0 mi NNW 8.1 mph - N/A   Clear
11:15 PM 39.2 °F 33.6 °F 32.0 °F 75% 30.25 in 10.0 mi NNW 8.1 mph - N/A   Clear
11:35 PM 37.4 °F 30.8 °F 30.2 °F 75% 30.25 in 10.0 mi NNW 9.2 mph - N/A   Clear
11:55 PM 37.4 °F 32.1 °F 30.2 °F 75% 30.25 in 10.0 mi NW 6.9 mph - N/A   Clear